X  Zatvori METAR podaci zračne luke     LDPL Pula Airport
Temperatura
9°C Temperatura
8°C Točka rosišta
94% Vlaga



Vjetar
0 KM/S
0 MPS
0 M/S
0 Čvorovi



Tišina
S
Trenutna situacija

Pretežno oblačno Pretežno oblačno
Tlak zraka 1012.92 (hPa) - 29.91 (inHg)
Vidljivost 6.2 (milje) - 10 (km)
Zračna luka
Kôd zračne luke LDPL

Lokacija: Pula Airport
Udaljenost: 39 (km)

Metar:
LDPL 062330Z 00000KT 9999 BKN017 OVC030 09/08 Q1013

Vrijeme: 07-12-2022 00:30 CET